sensor_id;sensor_type;location;lat;lon;timestamp;temperature;humidity
38398;DHT22;24179;52.094;4.408;2022-08-21T00:02:57;16.70;99.90
38398;DHT22;24179;52.094;4.408;2022-08-21T00:05:58;16.70;99.90
38398;DHT22;24179;52.094;4.408;2022-08-21T00:08:59;16.50;99.90
38398;DHT22;24179;52.094;4.408;2022-08-21T00:11:59;16.40;99.90
38398;DHT22;24179;52.094;4.408;2022-08-21T00:15:00;16.20;99.90
38398;DHT22;24179;52.094;4.408;2022-08-21T00:18:00;16.20;99.90
38398;DHT22;24179;52.094;4.408;2022-08-21T00:21:01;16.20;99.90
38398;DHT22;24179;52.094;4.408;2022-08-21T00:24:01;16.10;99.90
38398;DHT22;24179;52.094;4.408;2022-08-21T00:27:02;16.30;99.90
38398;DHT22;24179;52.094;4.408;2022-08-21T00:30:04;16.30;99.90
38398;DHT22;24179;52.094;4.408;2022-08-21T00:33:05;16.40;99.90
38398;DHT22;24179;52.094;4.408;2022-08-21T00:36:06;16.50;99.90
38398;DHT22;24179;52.094;4.408;2022-08-21T00:39:07;16.60;99.90
38398;DHT22;24179;52.094;4.408;2022-08-21T00:42:08;16.60;99.90
38398;DHT22;24179;52.094;4.408;2022-08-21T00:45:09;16.60;99.90
38398;DHT22;24179;52.094;4.408;2022-08-21T00:48:09;16.60;99.90
38398;DHT22;24179;52.094;4.408;2022-08-21T00:51:12;16.60;99.90
38398;DHT22;24179;52.094;4.408;2022-08-21T00:54:14;16.50;99.90
38398;DHT22;24179;52.094;4.408;2022-08-21T00:57:19;16.70;99.90
38398;DHT22;24179;52.094;4.408;2022-08-21T01:00:23;16.70;99.90
38398;DHT22;24179;52.094;4.408;2022-08-21T01:03:24;16.70;99.90
38398;DHT22;24179;52.094;4.408;2022-08-21T01:06:25;16.70;99.90
38398;DHT22;24179;52.094;4.408;2022-08-21T01:09:26;16.80;99.90
38398;DHT22;24179;52.094;4.408;2022-08-21T01:12:26;16.80;99.90
38398;DHT22;24179;52.094;4.408;2022-08-21T01:15:32;16.70;99.90
38398;DHT22;24179;52.094;4.408;2022-08-21T01:18:33;16.70;99.90
38398;DHT22;24179;52.094;4.408;2022-08-21T01:21:34;16.70;99.90
38398;DHT22;24179;52.094;4.408;2022-08-21T01:24:34;16.60;99.90
38398;DHT22;24179;52.094;4.408;2022-08-21T01:27:35;16.60;99.90
38398;DHT22;24179;52.094;4.408;2022-08-21T01:30:35;16.50;99.90
38398;DHT22;24179;52.094;4.408;2022-08-21T01:33:36;16.50;99.90
38398;DHT22;24179;52.094;4.408;2022-08-21T01:36:37;16.40;99.90
38398;DHT22;24179;52.094;4.408;2022-08-21T01:39:38;16.40;99.90
38398;DHT22;24179;52.094;4.408;2022-08-21T01:42:39;16.40;99.90
38398;DHT22;24179;52.094;4.408;2022-08-21T01:45:39;16.40;99.90
38398;DHT22;24179;52.094;4.408;2022-08-21T01:48:40;16.30;99.90
38398;DHT22;24179;52.094;4.408;2022-08-21T01:51:40;16.20;99.90
38398;DHT22;24179;52.094;4.408;2022-08-21T01:54:41;16.10;99.90
38398;DHT22;24179;52.094;4.408;2022-08-21T01:57:41;16.00;99.90
38398;DHT22;24179;52.094;4.408;2022-08-21T02:00:42;15.90;99.90
38398;DHT22;24179;52.094;4.408;2022-08-21T02:03:43;15.80;99.90
38398;DHT22;24179;52.094;4.408;2022-08-21T02:06:43;15.70;99.90
38398;DHT22;24179;52.094;4.408;2022-08-21T02:09:44;15.70;99.90
38398;DHT22;24179;52.094;4.408;2022-08-21T02:12:44;15.60;99.90
38398;DHT22;24179;52.094;4.408;2022-08-21T02:15:45;15.60;99.90
38398;DHT22;24179;52.094;4.408;2022-08-21T02:18:46;15.60;99.90
38398;DHT22;24179;52.094;4.408;2022-08-21T02:21:46;15.60;99.90
38398;DHT22;24179;52.094;4.408;2022-08-21T02:24:46;15.60;99.90
38398;DHT22;24179;52.094;4.408;2022-08-21T02:27:47;15.60;99.90
38398;DHT22;24179;52.094;4.408;2022-08-21T02:30:48;15.70;99.90
38398;DHT22;24179;52.094;4.408;2022-08-21T02:33:49;15.70;99.90
38398;DHT22;24179;52.094;4.408;2022-08-21T02:36:49;15.60;99.90
38398;DHT22;24179;52.094;4.408;2022-08-21T02:39:50;15.70;99.90
38398;DHT22;24179;52.094;4.408;2022-08-21T02:42:50;15.60;99.90
38398;DHT22;24179;52.094;4.408;2022-08-21T02:45:51;15.60;99.90
38398;DHT22;24179;52.094;4.408;2022-08-21T02:48:52;15.50;99.90
38398;DHT22;24179;52.094;4.408;2022-08-21T02:51:52;15.50;99.90
38398;DHT22;24179;52.094;4.408;2022-08-21T02:54:53;15.40;99.90
38398;DHT22;24179;52.094;4.408;2022-08-21T02:57:53;15.50;99.90
38398;DHT22;24179;52.094;4.408;2022-08-21T03:00:54;15.40;99.90
38398;DHT22;24179;52.094;4.408;2022-08-21T03:03:55;15.30;99.90
38398;DHT22;24179;52.094;4.408;2022-08-21T03:06:55;15.40;99.90
38398;DHT22;24179;52.094;4.408;2022-08-21T03:09:56;15.40;99.90
38398;DHT22;24179;52.094;4.408;2022-08-21T03:12:56;15.40;99.90
38398;DHT22;24179;52.094;4.408;2022-08-21T03:15:57;15.40;99.90
38398;DHT22;24179;52.094;4.408;2022-08-21T03:18:57;15.30;99.90
38398;DHT22;24179;52.094;4.408;2022-08-21T03:21:58;15.20;99.90
38398;DHT22;24179;52.094;4.408;2022-08-21T03:24:59;15.20;99.90
38398;DHT22;24179;52.094;4.408;2022-08-21T03:28:00;15.20;99.90
38398;DHT22;24179;52.094;4.408;2022-08-21T03:31:00;15.20;99.90
38398;DHT22;24179;52.094;4.408;2022-08-21T03:34:01;15.30;99.90
38398;DHT22;24179;52.094;4.408;2022-08-21T03:37:02;15.30;99.90
38398;DHT22;24179;52.094;4.408;2022-08-21T03:40:04;15.50;99.90
38398;DHT22;24179;52.094;4.408;2022-08-21T03:43:05;15.50;99.90
38398;DHT22;24179;52.094;4.408;2022-08-21T03:46:09;15.60;99.90
38398;DHT22;24179;52.094;4.408;2022-08-21T03:49:10;15.60;99.90
38398;DHT22;24179;52.094;4.408;2022-08-21T03:52:10;15.60;99.90
38398;DHT22;24179;52.094;4.408;2022-08-21T03:55:11;15.60;99.90
38398;DHT22;24179;52.094;4.408;2022-08-21T03:58:11;15.60;99.90
38398;DHT22;24179;52.094;4.408;2022-08-21T04:01:11;15.60;99.90
38398;DHT22;24179;52.094;4.408;2022-08-21T04:04:12;15.60;99.90
38398;DHT22;24179;52.094;4.408;2022-08-21T04:07:13;15.70;99.90
38398;DHT22;24179;52.094;4.408;2022-08-21T04:10:13;15.60;99.90
38398;DHT22;24179;52.094;4.408;2022-08-21T04:13:14;15.70;99.90
38398;DHT22;24179;52.094;4.408;2022-08-21T04:16:17;15.60;99.90
38398;DHT22;24179;52.094;4.408;2022-08-21T04:19:19;15.60;99.90
38398;DHT22;24179;52.094;4.408;2022-08-21T04:22:20;15.50;99.90
38398;DHT22;24179;52.094;4.408;2022-08-21T04:25:21;15.40;99.90
38398;DHT22;24179;52.094;4.408;2022-08-21T04:28:23;15.40;99.90
38398;DHT22;24179;52.094;4.408;2022-08-21T04:31:24;15.40;99.90
38398;DHT22;24179;52.094;4.408;2022-08-21T04:34:24;15.40;99.90
38398;DHT22;24179;52.094;4.408;2022-08-21T04:37:25;15.40;99.90
38398;DHT22;24179;52.094;4.408;2022-08-21T04:40:26;15.40;99.90
38398;DHT22;24179;52.094;4.408;2022-08-21T04:43:27;15.40;99.90
38398;DHT22;24179;52.094;4.408;2022-08-21T04:46:28;15.40;99.90
38398;DHT22;24179;52.094;4.408;2022-08-21T04:49:29;15.40;99.90
38398;DHT22;24179;52.094;4.408;2022-08-21T04:52:31;15.50;99.90
38398;DHT22;24179;52.094;4.408;2022-08-21T04:55:31;15.50;99.90
38398;DHT22;24179;52.094;4.408;2022-08-21T04:58:32;15.50;99.90
38398;DHT22;24179;52.094;4.408;2022-08-21T05:01:34;15.60;99.90
38398;DHT22;24179;52.094;4.408;2022-08-21T05:04:36;15.60;99.90
38398;DHT22;24179;52.094;4.408;2022-08-21T05:07:38;15.70;99.90
38398;DHT22;24179;52.094;4.408;2022-08-21T05:10:39;15.80;99.90
38398;DHT22;24179;52.094;4.408;2022-08-21T05:13:40;15.90;99.90
38398;DHT22;24179;52.094;4.408;2022-08-21T05:16:41;15.90;99.90
38398;DHT22;24179;52.094;4.408;2022-08-21T05:19:42;16.00;99.90
38398;DHT22;24179;52.094;4.408;2022-08-21T05:22:42;16.10;99.90
38398;DHT22;24179;52.094;4.408;2022-08-21T05:25:43;16.10;99.90
38398;DHT22;24179;52.094;4.408;2022-08-21T05:28:43;16.20;99.90
38398;DHT22;24179;52.094;4.408;2022-08-21T05:31:45;16.20;99.90
38398;DHT22;24179;52.094;4.408;2022-08-21T05:34:46;16.20;99.90
38398;DHT22;24179;52.094;4.408;2022-08-21T05:37:47;16.30;99.90
38398;DHT22;24179;52.094;4.408;2022-08-21T05:40:47;16.40;99.90
38398;DHT22;24179;52.094;4.408;2022-08-21T05:43:48;16.40;99.90
38398;DHT22;24179;52.094;4.408;2022-08-21T05:46:48;16.40;99.90
38398;DHT22;24179;52.094;4.408;2022-08-21T05:49:49;16.50;99.90
38398;DHT22;24179;52.094;4.408;2022-08-21T05:52:49;16.50;99.90
38398;DHT22;24179;52.094;4.408;2022-08-21T05:55:50;16.60;99.90
38398;DHT22;24179;52.094;4.408;2022-08-21T05:58:51;16.60;99.90
38398;DHT22;24179;52.094;4.408;2022-08-21T06:01:51;16.60;99.90
38398;DHT22;24179;52.094;4.408;2022-08-21T06:04:52;16.70;99.90
38398;DHT22;24179;52.094;4.408;2022-08-21T06:07:56;16.80;99.90
38398;DHT22;24179;52.094;4.408;2022-08-21T06:10:57;16.80;99.90
38398;DHT22;24179;52.094;4.408;2022-08-21T06:13:58;16.80;99.90
38398;DHT22;24179;52.094;4.408;2022-08-21T06:17:02;16.90;99.90
38398;DHT22;24179;52.094;4.408;2022-08-21T06:20:03;17.00;99.90
38398;DHT22;24179;52.094;4.408;2022-08-21T06:23:04;17.10;99.90
38398;DHT22;24179;52.094;4.408;2022-08-21T06:26:05;17.20;99.90
38398;DHT22;24179;52.094;4.408;2022-08-21T06:29:06;17.20;99.90
38398;DHT22;24179;52.094;4.408;2022-08-21T06:32:10;17.40;99.90
38398;DHT22;24179;52.094;4.408;2022-08-21T06:35:10;17.40;99.90
38398;DHT22;24179;52.094;4.408;2022-08-21T06:38:11;17.50;99.90
38398;DHT22;24179;52.094;4.408;2022-08-21T06:41:12;17.60;99.90
38398;DHT22;24179;52.094;4.408;2022-08-21T06:44:12;17.70;99.90
38398;DHT22;24179;52.094;4.408;2022-08-21T06:47:15;17.80;99.90
38398;DHT22;24179;52.094;4.408;2022-08-21T06:50:16;18.00;99.90
38398;DHT22;24179;52.094;4.408;2022-08-21T06:53:18;18.10;99.90
38398;DHT22;24179;52.094;4.408;2022-08-21T06:56:21;18.30;99.90
38398;DHT22;24179;52.094;4.408;2022-08-21T06:59:21;18.70;99.90
38398;DHT22;24179;52.094;4.408;2022-08-21T07:02:21;19.40;99.90
38398;DHT22;24179;52.094;4.408;2022-08-21T07:05:24;20.10;99.90
38398;DHT22;24179;52.094;4.408;2022-08-21T07:08:25;20.10;99.90
38398;DHT22;24179;52.094;4.408;2022-08-21T07:11:26;20.20;99.90
38398;DHT22;24179;52.094;4.408;2022-08-21T07:14:27;20.40;99.90
38398;DHT22;24179;52.094;4.408;2022-08-21T07:17:27;20.60;99.90
38398;DHT22;24179;52.094;4.408;2022-08-21T07:20:29;21.10;99.90
38398;DHT22;24179;52.094;4.408;2022-08-21T07:23:34;22.00;99.90
38398;DHT22;24179;52.094;4.408;2022-08-21T07:26:35;21.80;99.90
38398;DHT22;24179;52.094;4.408;2022-08-21T07:29:36;21.30;99.90
38398;DHT22;24179;52.094;4.408;2022-08-21T07:32:36;21.00;99.90
38398;DHT22;24179;52.094;4.408;2022-08-21T07:35:37;20.90;99.90
38398;DHT22;24179;52.094;4.408;2022-08-21T07:38:38;21.40;99.90
38398;DHT22;24179;52.094;4.408;2022-08-21T07:41:39;21.70;99.90
38398;DHT22;24179;52.094;4.408;2022-08-21T07:44:39;21.70;99.90
38398;DHT22;24179;52.094;4.408;2022-08-21T07:47:40;21.30;99.90
38398;DHT22;24179;52.094;4.408;2022-08-21T07:50:42;21.20;99.90
38398;DHT22;24179;52.094;4.408;2022-08-21T07:53:47;21.00;99.90
38398;DHT22;24179;52.094;4.408;2022-08-21T07:56:47;20.90;99.90
38398;DHT22;24179;52.094;4.408;2022-08-21T07:59:48;21.00;99.90
38398;DHT22;24179;52.094;4.408;2022-08-21T08:02:49;21.00;99.90
38398;DHT22;24179;52.094;4.408;2022-08-21T08:05:50;21.30;99.90
38398;DHT22;24179;52.094;4.408;2022-08-21T08:08:51;22.60;99.90
38398;DHT22;24179;52.094;4.408;2022-08-21T08:11:52;23.10;99.90
38398;DHT22;24179;52.094;4.408;2022-08-21T08:14:53;22.80;99.90
38398;DHT22;24179;52.094;4.408;2022-08-21T08:17:54;22.30;99.90
38398;DHT22;24179;52.094;4.408;2022-08-21T08:20:56;22.80;99.90
38398;DHT22;24179;52.094;4.408;2022-08-21T08:23:56;24.20;99.90
38398;DHT22;24179;52.094;4.408;2022-08-21T08:26:57;24.20;99.90
38398;DHT22;24179;52.094;4.408;2022-08-21T08:29:58;23.50;99.90
38398;DHT22;24179;52.094;4.408;2022-08-21T08:32:58;22.60;99.90
38398;DHT22;24179;52.094;4.408;2022-08-21T08:36:00;22.00;99.90
38398;DHT22;24179;52.094;4.408;2022-08-21T08:39:01;21.60;99.90
38398;DHT22;24179;52.094;4.408;2022-08-21T08:42:09;21.30;99.90
38398;DHT22;24179;52.094;4.408;2022-08-21T08:45:16;21.40;99.90
38398;DHT22;24179;52.094;4.408;2022-08-21T08:48:31;22.10;99.90
38398;DHT22;24179;52.094;4.408;2022-08-21T08:51:49;22.70;99.90
38398;DHT22;24179;52.094;4.408;2022-08-21T08:54:55;23.40;99.90
38398;DHT22;24179;52.094;4.408;2022-08-21T08:57:59;24.80;99.90
38398;DHT22;24179;52.094;4.408;2022-08-21T09:01:03;24.50;99.90
38398;DHT22;24179;52.094;4.408;2022-08-21T09:04:07;23.80;99.90
38398;DHT22;24179;52.094;4.408;2022-08-21T09:13:14;25.30;99.90
38398;DHT22;24179;52.094;4.408;2022-08-21T09:25:38;26.60;99.90
38398;DHT22;24179;52.094;4.408;2022-08-21T09:28:43;26.80;99.90
38398;DHT22;24179;52.094;4.408;2022-08-21T09:31:44;27.20;99.90
38398;DHT22;24179;52.094;4.408;2022-08-21T09:38:05;27.00;99.90
38398;DHT22;24179;52.094;4.408;2022-08-21T09:41:08;26.50;99.90
38398;DHT22;24179;52.094;4.408;2022-08-21T09:44:09;25.50;99.90
38398;DHT22;24179;52.094;4.408;2022-08-21T09:47:10;25.70;99.90
38398;DHT22;24179;52.094;4.408;2022-08-21T09:50:17;26.60;99.90
38398;DHT22;24179;52.094;4.408;2022-08-21T09:56:26;26.60;99.90
38398;DHT22;24179;52.094;4.408;2022-08-21T09:59:46;26.50;99.90
38398;DHT22;24179;52.094;4.408;2022-08-21T10:02:47;26.00;99.90
38398;DHT22;24179;52.094;4.408;2022-08-21T10:05:51;25.80;99.90
38398;DHT22;24179;52.094;4.408;2022-08-21T10:09:06;25.30;99.90
38398;DHT22;24179;52.094;4.408;2022-08-21T10:12:24;25.10;99.90
38398;DHT22;24179;52.094;4.408;2022-08-21T10:28:15;23.10;99.90
38398;DHT22;24179;52.094;4.408;2022-08-21T10:31:37;23.50;99.90
38398;DHT22;24179;52.094;4.408;2022-08-21T10:37:49;25.30;99.90
38398;DHT22;24179;52.094;4.408;2022-08-21T10:40:55;25.70;99.90
38398;DHT22;24179;52.094;4.408;2022-08-21T10:47:06;24.10;99.90
38398;DHT22;24179;52.094;4.408;2022-08-21T10:53:19;24.60;99.90
38398;DHT22;24179;52.094;4.408;2022-08-21T10:56:23;25.00;99.90
38398;DHT22;24179;52.094;4.408;2022-08-21T10:59:33;26.00;99.90
38398;DHT22;24179;52.094;4.408;2022-08-21T11:02:40;26.00;99.90
38398;DHT22;24179;52.094;4.408;2022-08-21T11:05:55;25.40;99.90
38398;DHT22;24179;52.094;4.408;2022-08-21T11:09:09;25.10;99.90
38398;DHT22;24179;52.094;4.408;2022-08-21T11:18:38;24.20;99.90
38398;DHT22;24179;52.094;4.408;2022-08-21T11:24:42;24.20;99.90
38398;DHT22;24179;52.094;4.408;2022-08-21T11:27:45;24.60;99.90
38398;DHT22;24179;52.094;4.408;2022-08-21T11:34:18;25.30;99.90
38398;DHT22;24179;52.094;4.408;2022-08-21T11:43:40;25.20;99.90
38398;DHT22;24179;52.094;4.408;2022-08-21T11:46:47;24.80;99.90
38398;DHT22;24179;52.094;4.408;2022-08-21T11:50:13;24.60;99.90
38398;DHT22;24179;52.094;4.408;2022-08-21T11:56:15;24.50;99.90
38398;DHT22;24179;52.094;4.408;2022-08-21T11:59:23;23.90;99.90
38398;DHT22;24179;52.094;4.408;2022-08-21T12:02:26;23.70;99.90
38398;DHT22;24179;52.094;4.408;2022-08-21T12:05:32;23.40;99.90
38398;DHT22;24179;52.094;4.408;2022-08-21T12:08:39;24.00;99.90
38398;DHT22;24179;52.094;4.408;2022-08-21T12:11:45;25.70;99.90
38398;DHT22;24179;52.094;4.408;2022-08-21T12:14:48;26.30;99.90
38398;DHT22;24179;52.094;4.408;2022-08-21T12:27:21;27.50;99.90
38398;DHT22;24179;52.094;4.408;2022-08-21T12:33:34;27.80;99.90
38398;DHT22;24179;52.094;4.408;2022-08-21T12:36:42;28.20;99.90
38398;DHT22;24179;52.094;4.408;2022-08-21T12:39:44;27.60;99.90
38398;DHT22;24179;52.094;4.408;2022-08-21T12:42:47;26.80;99.90
38398;DHT22;24179;52.094;4.408;2022-08-21T12:45:50;26.80;99.90
38398;DHT22;24179;52.094;4.408;2022-08-21T12:48:52;26.10;99.90
38398;DHT22;24179;52.094;4.408;2022-08-21T12:54:54;26.80;99.90
38398;DHT22;24179;52.094;4.408;2022-08-21T12:57:57;27.20;99.90
38398;DHT22;24179;52.094;4.408;2022-08-21T13:01:11;26.90;99.90
38398;DHT22;24179;52.094;4.408;2022-08-21T13:04:17;27.60;99.90
38398;DHT22;24179;52.094;4.408;2022-08-21T13:07:31;27.50;99.90
38398;DHT22;24179;52.094;4.408;2022-08-21T13:10:33;26.20;99.90
38398;DHT22;24179;52.094;4.408;2022-08-21T13:13:34;26.40;99.90
38398;DHT22;24179;52.094;4.408;2022-08-21T13:16:35;26.00;99.90
38398;DHT22;24179;52.094;4.408;2022-08-21T13:19:36;26.50;99.90
38398;DHT22;24179;52.094;4.408;2022-08-21T13:22:40;27.20;99.90
38398;DHT22;24179;52.094;4.408;2022-08-21T13:25:41;26.10;99.90
38398;DHT22;24179;52.094;4.408;2022-08-21T13:28:42;25.20;99.90
38398;DHT22;24179;52.094;4.408;2022-08-21T13:31:51;25.10;99.90
38398;DHT22;24179;52.094;4.408;2022-08-21T13:34:53;24.80;99.90
38398;DHT22;24179;52.094;4.408;2022-08-21T13:37:53;24.40;99.90
38398;DHT22;24179;52.094;4.408;2022-08-21T13:40:55;24.20;99.90
38398;DHT22;24179;52.094;4.408;2022-08-21T13:43:58;24.60;99.90
38398;DHT22;24179;52.094;4.408;2022-08-21T13:47:00;24.90;99.90
38398;DHT22;24179;52.094;4.408;2022-08-21T13:50:01;24.60;99.90
38398;DHT22;24179;52.094;4.408;2022-08-21T13:53:04;24.20;99.90
38398;DHT22;24179;52.094;4.408;2022-08-21T13:56:05;23.80;99.90
38398;DHT22;24179;52.094;4.408;2022-08-21T13:59:05;23.70;99.90
38398;DHT22;24179;52.094;4.408;2022-08-21T14:05:20;24.00;99.90
38398;DHT22;24179;52.094;4.408;2022-08-21T14:11:25;23.90;99.90
38398;DHT22;24179;52.094;4.408;2022-08-21T14:14:27;23.90;99.90
38398;DHT22;24179;52.094;4.408;2022-08-21T14:17:33;24.10;99.90
38398;DHT22;24179;52.094;4.408;2022-08-21T14:20:35;24.20;99.90
38398;DHT22;24179;52.094;4.408;2022-08-21T14:23:35;24.40;99.90
38398;DHT22;24179;52.094;4.408;2022-08-21T14:26:42;23.90;99.90
38398;DHT22;24179;52.094;4.408;2022-08-21T14:29:44;23.70;99.90
38398;DHT22;24179;52.094;4.408;2022-08-21T14:32:46;23.70;99.90
38398;DHT22;24179;52.094;4.408;2022-08-21T14:35:47;23.70;99.90
38398;DHT22;24179;52.094;4.408;2022-08-21T14:38:47;23.60;99.90
38398;DHT22;24179;52.094;4.408;2022-08-21T14:41:48;23.90;99.90
38398;DHT22;24179;52.094;4.408;2022-08-21T14:44:48;24.20;99.90
38398;DHT22;24179;52.094;4.408;2022-08-21T14:47:49;24.10;99.90
38398;DHT22;24179;52.094;4.408;2022-08-21T14:50:50;23.90;99.90
38398;DHT22;24179;52.094;4.408;2022-08-21T14:53:51;24.10;99.90
38398;DHT22;24179;52.094;4.408;2022-08-21T14:56:51;24.00;99.90
38398;DHT22;24179;52.094;4.408;2022-08-21T14:59:52;23.80;99.90
38398;DHT22;24179;52.094;4.408;2022-08-21T15:02:52;23.90;99.90
38398;DHT22;24179;52.094;4.408;2022-08-21T15:05:53;24.00;99.90
38398;DHT22;24179;52.094;4.408;2022-08-21T15:08:53;24.30;99.90
38398;DHT22;24179;52.094;4.408;2022-08-21T15:11:55;24.30;99.90
38398;DHT22;24179;52.094;4.408;2022-08-21T15:14:56;24.30;99.90
38398;DHT22;24179;52.094;4.408;2022-08-21T15:17:57;24.30;99.90
38398;DHT22;24179;52.094;4.408;2022-08-21T15:20:57;24.60;99.90
38398;DHT22;24179;52.094;4.408;2022-08-21T15:23:58;24.80;99.90
38398;DHT22;24179;52.094;4.408;2022-08-21T15:26:59;25.20;99.90
38398;DHT22;24179;52.094;4.408;2022-08-21T15:30:00;25.50;99.90
38398;DHT22;24179;52.094;4.408;2022-08-21T15:33:01;25.00;99.90
38398;DHT22;24179;52.094;4.408;2022-08-21T15:36:01;25.10;99.90
38398;DHT22;24179;52.094;4.408;2022-08-21T15:39:02;25.90;99.90
38398;DHT22;24179;52.094;4.408;2022-08-21T15:42:03;26.90;99.90
38398;DHT22;24179;52.094;4.408;2022-08-21T15:45:04;27.70;99.90
38398;DHT22;24179;52.094;4.408;2022-08-21T15:48:05;28.00;99.90
38398;DHT22;24179;52.094;4.408;2022-08-21T15:51:06;28.60;99.90
38398;DHT22;24179;52.094;4.408;2022-08-21T15:54:06;29.00;99.90
38398;DHT22;24179;52.094;4.408;2022-08-21T15:57:07;28.90;99.90
38398;DHT22;24179;52.094;4.408;2022-08-21T16:00:13;28.40;99.90
38398;DHT22;24179;52.094;4.408;2022-08-21T16:03:15;28.70;99.90
38398;DHT22;24179;52.094;4.408;2022-08-21T16:06:16;29.20;99.90
38398;DHT22;24179;52.094;4.408;2022-08-21T16:09:17;29.90;99.90
38398;DHT22;24179;52.094;4.408;2022-08-21T16:12:22;30.80;99.40
38398;DHT22;24179;52.094;4.408;2022-08-21T16:15:23;30.70;98.70
38398;DHT22;24179;52.094;4.408;2022-08-21T16:18:26;30.00;98.80
38398;DHT22;24179;52.094;4.408;2022-08-21T16:21:27;29.00;99.70
38398;DHT22;24179;52.094;4.408;2022-08-21T16:24:27;28.30;99.90
38398;DHT22;24179;52.094;4.408;2022-08-21T16:27:28;27.10;99.90
38398;DHT22;24179;52.094;4.408;2022-08-21T16:30:29;26.30;99.90
38398;DHT22;24179;52.094;4.408;2022-08-21T16:33:39;26.00;99.90
38398;DHT22;24179;52.094;4.408;2022-08-21T16:36:41;25.70;99.90
38398;DHT22;24179;52.094;4.408;2022-08-21T16:39:41;25.20;99.90
38398;DHT22;24179;52.094;4.408;2022-08-21T16:42:42;24.60;99.90
38398;DHT22;24179;52.094;4.408;2022-08-21T16:45:43;24.20;99.90
38398;DHT22;24179;52.094;4.408;2022-08-21T16:48:43;23.90;99.90
38398;DHT22;24179;52.094;4.408;2022-08-21T16:51:44;23.70;99.90
38398;DHT22;24179;52.094;4.408;2022-08-21T16:54:44;23.50;99.90
38398;DHT22;24179;52.094;4.408;2022-08-21T16:57:45;23.10;99.90
38398;DHT22;24179;52.094;4.408;2022-08-21T17:00:46;22.90;99.90
38398;DHT22;24179;52.094;4.408;2022-08-21T17:03:47;22.80;99.90
38398;DHT22;24179;52.094;4.408;2022-08-21T17:06:50;22.70;99.90
38398;DHT22;24179;52.094;4.408;2022-08-21T17:09:51;22.60;99.90
38398;DHT22;24179;52.094;4.408;2022-08-21T17:12:55;22.50;99.90
38398;DHT22;24179;52.094;4.408;2022-08-21T17:15:56;22.30;99.90
38398;DHT22;24179;52.094;4.408;2022-08-21T17:18:57;22.30;99.90
38398;DHT22;24179;52.094;4.408;2022-08-21T17:21:57;22.20;99.90
38398;DHT22;24179;52.094;4.408;2022-08-21T17:24:58;22.20;99.90
38398;DHT22;24179;52.094;4.408;2022-08-21T17:27:58;22.20;99.90
38398;DHT22;24179;52.094;4.408;2022-08-21T17:30:59;22.30;99.90
38398;DHT22;24179;52.094;4.408;2022-08-21T17:34:01;22.20;99.90
38398;DHT22;24179;52.094;4.408;2022-08-21T17:37:02;22.20;99.90
38398;DHT22;24179;52.094;4.408;2022-08-21T17:40:04;22.20;99.90
38398;DHT22;24179;52.094;4.408;2022-08-21T17:43:06;22.50;99.90
38398;DHT22;24179;52.094;4.408;2022-08-21T17:46:08;22.90;99.90
38398;DHT22;24179;52.094;4.408;2022-08-21T17:49:09;23.00;99.90
38398;DHT22;24179;52.094;4.408;2022-08-21T17:52:10;22.80;99.90
38398;DHT22;24179;52.094;4.408;2022-08-21T17:55:12;22.50;99.90
38398;DHT22;24179;52.094;4.408;2022-08-21T17:58:12;22.30;99.90
38398;DHT22;24179;52.094;4.408;2022-08-21T18:01:13;22.10;99.90
38398;DHT22;24179;52.094;4.408;2022-08-21T18:04:14;21.70;99.90
38398;DHT22;24179;52.094;4.408;2022-08-21T18:07:18;21.50;99.90
38398;DHT22;24179;52.094;4.408;2022-08-21T18:10:18;21.30;99.90
38398;DHT22;24179;52.094;4.408;2022-08-21T18:13:21;21.20;99.90
38398;DHT22;24179;52.094;4.408;2022-08-21T18:16:22;21.00;99.90
38398;DHT22;24179;52.094;4.408;2022-08-21T18:19:22;20.90;99.90
38398;DHT22;24179;52.094;4.408;2022-08-21T18:22:25;20.80;99.90
38398;DHT22;24179;52.094;4.408;2022-08-21T18:25:26;20.70;99.90
38398;DHT22;24179;52.094;4.408;2022-08-21T18:28:26;20.50;99.90
38398;DHT22;24179;52.094;4.408;2022-08-21T18:31:28;20.50;99.90
38398;DHT22;24179;52.094;4.408;2022-08-21T18:34:30;20.40;99.90
38398;DHT22;24179;52.094;4.408;2022-08-21T18:37:33;20.30;99.90
38398;DHT22;24179;52.094;4.408;2022-08-21T18:40:35;20.20;99.90
38398;DHT22;24179;52.094;4.408;2022-08-21T18:43:36;20.10;99.90
38398;DHT22;24179;52.094;4.408;2022-08-21T18:46:37;20.00;99.90
38398;DHT22;24179;52.094;4.408;2022-08-21T18:49:38;19.90;99.90
38398;DHT22;24179;52.094;4.408;2022-08-21T18:52:39;19.80;99.90
38398;DHT22;24179;52.094;4.408;2022-08-21T18:55:41;19.70;99.90
38398;DHT22;24179;52.094;4.408;2022-08-21T18:58:42;19.70;99.90
38398;DHT22;24179;52.094;4.408;2022-08-21T19:01:43;19.50;99.90
38398;DHT22;24179;52.094;4.408;2022-08-21T19:04:44;19.50;99.90
38398;DHT22;24179;52.094;4.408;2022-08-21T19:07:46;19.40;99.90
38398;DHT22;24179;52.094;4.408;2022-08-21T19:10:47;19.30;99.90
38398;DHT22;24179;52.094;4.408;2022-08-21T19:13:49;19.20;99.90
38398;DHT22;24179;52.094;4.408;2022-08-21T19:16:50;19.10;99.90
38398;DHT22;24179;52.094;4.408;2022-08-21T19:19:51;19.00;99.90
38398;DHT22;24179;52.094;4.408;2022-08-21T19:22:52;19.00;99.90
38398;DHT22;24179;52.094;4.408;2022-08-21T19:25:52;18.90;99.90
38398;DHT22;24179;52.094;4.408;2022-08-21T19:28:55;18.80;99.90
38398;DHT22;24179;52.094;4.408;2022-08-21T19:31:56;18.70;99.90
38398;DHT22;24179;52.094;4.408;2022-08-21T19:34:56;18.60;99.90
38398;DHT22;24179;52.094;4.408;2022-08-21T19:37:57;18.60;99.90
38398;DHT22;24179;52.094;4.408;2022-08-21T19:40:57;18.50;99.90
38398;DHT22;24179;52.094;4.408;2022-08-21T19:43:58;18.50;99.90
38398;DHT22;24179;52.094;4.408;2022-08-21T19:47:00;18.40;99.90
38398;DHT22;24179;52.094;4.408;2022-08-21T19:50:02;18.50;99.90
38398;DHT22;24179;52.094;4.408;2022-08-21T19:53:03;18.50;99.90
38398;DHT22;24179;52.094;4.408;2022-08-21T19:56:05;18.50;99.90
38398;DHT22;24179;52.094;4.408;2022-08-21T19:59:05;18.50;99.90
38398;DHT22;24179;52.094;4.408;2022-08-21T20:02:07;18.50;99.90
38398;DHT22;24179;52.094;4.408;2022-08-21T20:05:08;18.50;99.90
38398;DHT22;24179;52.094;4.408;2022-08-21T20:08:09;18.60;99.90
38398;DHT22;24179;52.094;4.408;2022-08-21T20:11:10;18.60;99.90
38398;DHT22;24179;52.094;4.408;2022-08-21T20:14:11;18.60;99.90
38398;DHT22;24179;52.094;4.408;2022-08-21T20:17:13;18.50;99.90
38398;DHT22;24179;52.094;4.408;2022-08-21T20:20:14;18.50;99.90
38398;DHT22;24179;52.094;4.408;2022-08-21T20:23:14;18.50;99.90
38398;DHT22;24179;52.094;4.408;2022-08-21T20:26:17;18.40;99.90
38398;DHT22;24179;52.094;4.408;2022-08-21T20:29:18;18.50;99.90
38398;DHT22;24179;52.094;4.408;2022-08-21T20:32:19;18.50;99.90
38398;DHT22;24179;52.094;4.408;2022-08-21T20:35:19;18.50;99.90
38398;DHT22;24179;52.094;4.408;2022-08-21T20:38:20;18.40;99.90